TUI67J EDDL-GVBA
Flight info
| Callsign | TUI67J |
|---|---|
| Flight time | N/A |
| Altitude | 32000 |
| Route | NETEX1K NETEX DCT RASCA DCT FAMEN/N0444F330 DCT ESTOC UT300 PON UN872 ERIGA DCT FUJTI DCT BAKUP/N0444F350 DCT BATAX DCT BABEX DCT ABRAT DCT GAIOS DCT BAROK UN873 SAMAR DCT YUSME/N0451F370 DCT LIMAL/N0450F360 N873 IPERA DCT DIMKI DIMKI1P |
| Aircraft | B738/M-SDE2E3FGHIRWXY/LB1 |
Departure
| Time | N/A |
|---|---|
| Airport | Düsseldorf Airport (EDDL) |
Arrival
| Time | 2026-04-25 15:20 |
|---|---|
| Airport | Aristides Pereira International Airport (GVBA) |
| Time | Latitude | Longitude | Altitude | Speed | Heading |
|---|---|---|---|---|---|
| 2026-04-25 13:23 | 26.57014 | -16.80877 | 36320 ft | 428 kts | 216° |
| 2026-04-25 13:24 | 26.54308 | -16.82307 | 36515 ft | 428 kts | 216° |
| 2026-04-25 13:24 | 26.51640 | -16.83715 | 36743 ft | 427 kts | 216° |
| 2026-04-25 13:24 | 26.48961 | -16.85127 | 36984 ft | 425 kts | 216° |
| 2026-04-25 13:25 | 26.43593 | -16.87959 | 37066 ft | 428 kts | 216° |
| 2026-04-25 13:25 | 26.38197 | -16.90801 | 37065 ft | 426 kts | 216° |
| 2026-04-25 13:26 | 26.32846 | -16.93612 | 37067 ft | 423 kts | 216° |
| 2026-04-25 13:26 | 26.27565 | -16.96385 | 37069 ft | 421 kts | 216° |
| 2026-04-25 13:27 | 26.22240 | -16.99181 | 37064 ft | 419 kts | 216° |
| 2026-04-25 13:27 | 26.17006 | -17.01928 | 37068 ft | 418 kts | 216° |
| 2026-04-25 13:28 | 26.11724 | -17.04697 | 37076 ft | 418 kts | 216° |
| 2026-04-25 13:28 | 26.06479 | -17.07444 | 37068 ft | 419 kts | 216° |
| 2026-04-25 13:29 | 26.01187 | -17.10212 | 37083 ft | 421 kts | 216° |
| 2026-04-25 13:29 | 25.95912 | -17.12969 | 37076 ft | 423 kts | 216° |
| 2026-04-25 13:30 | 25.87917 | -17.17139 | 37074 ft | 425 kts | 216° |
| 2026-04-25 13:31 | 25.79871 | -17.21329 | 37072 ft | 426 kts | 216° |
| 2026-04-25 13:31 | 25.74492 | -17.24126 | 37070 ft | 426 kts | 216° |
| 2026-04-25 13:32 | 25.69149 | -17.26903 | 37067 ft | 426 kts | 216° |
| 2026-04-25 13:32 | 25.63783 | -17.29688 | 37067 ft | 425 kts | 216° |
| 2026-04-25 13:33 | 25.58438 | -17.32459 | 37071 ft | 424 kts | 216° |
| 2026-04-25 13:33 | 25.53097 | -17.35226 | 37068 ft | 423 kts | 216° |
| 2026-04-25 13:34 | 25.47768 | -17.37985 | 37063 ft | 421 kts | 216° |
| 2026-04-25 13:34 | 25.42459 | -17.40731 | 37066 ft | 420 kts | 216° |
| 2026-04-25 13:35 | 25.37166 | -17.43466 | 37063 ft | 419 kts | 216° |
| 2026-04-25 13:35 | 25.31886 | -17.46192 | 37063 ft | 418 kts | 216° |
| 2026-04-25 13:36 | 25.26609 | -17.48914 | 37066 ft | 418 kts | 217° |
| 2026-04-25 13:36 | 25.21372 | -17.51612 | 37064 ft | 417 kts | 217° |
| 2026-04-25 13:37 | 25.16092 | -17.54330 | 37065 ft | 417 kts | 217° |
| 2026-04-25 13:37 | 25.10822 | -17.57041 | 37064 ft | 417 kts | 217° |
| 2026-04-25 13:38 | 25.05559 | -17.59746 | 37080 ft | 418 kts | 217° |
| 2026-04-25 13:38 | 25.00317 | -17.62445 | 37062 ft | 416 kts | 218° |
| 2026-04-25 13:39 | 24.96229 | -17.65065 | 37073 ft | 408 kts | 223° |
| 2026-04-25 13:39 | 24.91422 | -17.68432 | 37066 ft | 408 kts | 224° |
| 2026-04-25 13:40 | 24.87434 | -17.71232 | 37064 ft | 408 kts | 224° |
| 2026-04-25 13:40 | 24.81850 | -17.75112 | 37060 ft | 409 kts | 223° |
| 2026-04-25 13:41 | 24.77004 | -17.78454 | 37056 ft | 409 kts | 223° |
| 2026-04-25 13:41 | 24.72171 | -17.81778 | 37057 ft | 409 kts | 223° |
| 2026-04-25 13:42 | 24.67367 | -17.85078 | 37055 ft | 409 kts | 223° |
| 2026-04-25 13:42 | 24.62536 | -17.88394 | 37053 ft | 409 kts | 223° |
| 2026-04-25 13:43 | 24.57703 | -17.91709 | 37052 ft | 409 kts | 223° |
| 2026-04-25 13:43 | 24.52889 | -17.95008 | 37056 ft | 408 kts | 223° |
| 2026-04-25 13:44 | 24.48061 | -17.98313 | 37055 ft | 407 kts | 223° |
| 2026-04-25 13:44 | 24.43250 | -18.01604 | 37055 ft | 407 kts | 223° |
| 2026-04-25 13:45 | 24.38444 | -18.04889 | 37054 ft | 406 kts | 223° |
| 2026-04-25 13:45 | 24.33647 | -18.08164 | 37052 ft | 406 kts | 223° |
| 2026-04-25 13:46 | 24.28866 | -18.11425 | 37054 ft | 405 kts | 223° |
| 2026-04-25 13:46 | 24.24050 | -18.14709 | 37051 ft | 405 kts | 223° |
| 2026-04-25 13:47 | 24.19272 | -18.17962 | 37054 ft | 405 kts | 223° |
| 2026-04-25 13:47 | 24.14490 | -18.21216 | 37051 ft | 405 kts | 223° |
| 2026-04-25 13:48 | 24.09731 | -18.24451 | 37049 ft | 405 kts | 223° |
| 2026-04-25 13:48 | 24.04926 | -18.27714 | 37048 ft | 405 kts | 223° |
| 2026-04-25 13:49 | 24.00129 | -18.30969 | 37048 ft | 405 kts | 223° |
| 2026-04-25 13:49 | 23.96205 | -18.33630 | 37047 ft | 405 kts | 223° |
| 2026-04-25 13:50 | 23.91409 | -18.36880 | 37048 ft | 405 kts | 223° |
| 2026-04-25 13:50 | 23.86600 | -18.40134 | 37050 ft | 405 kts | 223° |
| 2026-04-25 13:51 | 23.82620 | -18.42826 | 37047 ft | 406 kts | 223° |
| 2026-04-25 13:51 | 23.77816 | -18.46073 | 37050 ft | 406 kts | 223° |
| 2026-04-25 13:52 | 23.73005 | -18.49321 | 37042 ft | 406 kts | 223° |
| 2026-04-25 13:52 | 23.68204 | -18.52559 | 37051 ft | 406 kts | 223° |
| 2026-04-25 13:53 | 23.63372 | -18.55816 | 37051 ft | 407 kts | 223° |
| 2026-04-25 13:53 | 23.58579 | -18.59044 | 37045 ft | 407 kts | 223° |
| 2026-04-25 13:54 | 23.53766 | -18.62281 | 37044 ft | 407 kts | 223° |
| 2026-04-25 13:54 | 23.48942 | -18.65524 | 37038 ft | 407 kts | 223° |
| 2026-04-25 13:55 | 23.44119 | -18.68763 | 37041 ft | 407 kts | 223° |
| 2026-04-25 13:55 | 23.39288 | -18.72005 | 37043 ft | 407 kts | 223° |
| 2026-04-25 13:56 | 23.34490 | -18.75222 | 37039 ft | 407 kts | 223° |
| 2026-04-25 13:56 | 23.29645 | -18.78468 | 37038 ft | 408 kts | 223° |
| 2026-04-25 13:57 | 23.24835 | -18.81687 | 37040 ft | 408 kts | 223° |
| 2026-04-25 13:57 | 23.19985 | -18.84930 | 37037 ft | 408 kts | 223° |
| 2026-04-25 13:58 | 23.15127 | -18.88176 | 37036 ft | 409 kts | 223° |
| 2026-04-25 13:58 | 23.10304 | -18.91396 | 37033 ft | 409 kts | 223° |
| 2026-04-25 13:59 | 23.05421 | -18.94653 | 37032 ft | 409 kts | 222° |
| 2026-04-25 13:59 | 23.00577 | -18.97882 | 37030 ft | 410 kts | 222° |
| 2026-04-25 14:00 | 22.95701 | -19.01128 | 37030 ft | 410 kts | 222° |
| 2026-04-25 14:00 | 22.90841 | -19.04362 | 37038 ft | 410 kts | 222° |
| 2026-04-25 14:01 | 22.86002 | -19.07578 | 37044 ft | 410 kts | 222° |
| 2026-04-25 14:01 | 22.81114 | -19.10825 | 37044 ft | 410 kts | 222° |
| 2026-04-25 14:02 | 22.76245 | -19.14055 | 37040 ft | 411 kts | 222° |
| 2026-04-25 14:02 | 22.71396 | -19.17271 | 37019 ft | 411 kts | 222° |
| 2026-04-25 14:03 | 22.66505 | -19.20511 | 37032 ft | 411 kts | 222° |
| 2026-04-25 14:03 | 22.61628 | -19.23739 | 37032 ft | 411 kts | 222° |
| 2026-04-25 14:04 | 22.56748 | -19.26967 | 37030 ft | 411 kts | 222° |
| 2026-04-25 14:04 | 22.51883 | -19.30181 | 37027 ft | 411 kts | 222° |
| 2026-04-25 14:05 | 22.46983 | -19.33417 | 37030 ft | 411 kts | 221° |
| 2026-04-25 14:05 | 22.42107 | -19.36634 | 37029 ft | 411 kts | 221° |
| 2026-04-25 14:06 | 22.37254 | -19.39833 | 37029 ft | 411 kts | 221° |
| 2026-04-25 14:06 | 22.32343 | -19.43068 | 37027 ft | 411 kts | 221° |
| 2026-04-25 14:07 | 22.27482 | -19.46267 | 37026 ft | 412 kts | 221° |
| 2026-04-25 14:07 | 22.22562 | -19.49502 | 37025 ft | 412 kts | 221° |
| 2026-04-25 14:08 | 22.17664 | -19.52721 | 37025 ft | 412 kts | 221° |
| 2026-04-25 14:08 | 22.12763 | -19.55939 | 37023 ft | 412 kts | 221° |
| 2026-04-25 14:09 | 22.07880 | -19.59142 | 37021 ft | 413 kts | 221° |
| 2026-04-25 14:09 | 22.02968 | -19.62360 | 37022 ft | 413 kts | 221° |
| 2026-04-25 14:10 | 21.98075 | -19.65564 | 37026 ft | 413 kts | 221° |
| 2026-04-25 14:10 | 21.93153 | -19.68785 | 37024 ft | 413 kts | 221° |
| 2026-04-25 14:11 | 21.88223 | -19.72009 | 37023 ft | 414 kts | 221° |
| 2026-04-25 14:11 | 21.83287 | -19.75235 | 37022 ft | 414 kts | 220° |
| 2026-04-25 14:12 | 21.78389 | -19.78433 | 37025 ft | 414 kts | 220° |
| 2026-04-25 14:12 | 21.73447 | -19.81657 | 37017 ft | 414 kts | 220° |
| 2026-04-25 14:13 | 21.68536 | -19.84858 | 37019 ft | 414 kts | 220° |
| 2026-04-25 14:13 | 21.63609 | -19.88068 | 37024 ft | 414 kts | 220° |
| 2026-04-25 14:14 | 21.58670 | -19.91282 | 37018 ft | 414 kts | 220° |
| 2026-04-25 14:14 | 21.53753 | -19.94480 | 37020 ft | 414 kts | 220° |
| 2026-04-25 14:15 | 21.48839 | -19.97673 | 37017 ft | 414 kts | 220° |
| 2026-04-25 14:15 | 21.43888 | -20.00887 | 37018 ft | 414 kts | 220° |
| 2026-04-25 14:16 | 21.38984 | -20.04069 | 37018 ft | 414 kts | 220° |
| 2026-04-25 14:16 | 21.34042 | -20.07273 | 37017 ft | 414 kts | 220° |
| 2026-04-25 14:17 | 21.29090 | -20.10481 | 37018 ft | 415 kts | 220° |
| 2026-04-25 14:17 | 21.24155 | -20.13675 | 37015 ft | 415 kts | 220° |
| 2026-04-25 14:18 | 21.19212 | -20.16872 | 37016 ft | 416 kts | 220° |
| 2026-04-25 14:18 | 21.14281 | -20.20058 | 37012 ft | 416 kts | 219° |
| 2026-04-25 14:19 | 21.09300 | -20.23275 | 37020 ft | 416 kts | 219° |
| 2026-04-25 14:19 | 21.04331 | -20.26480 | 37016 ft | 417 kts | 219° |
| 2026-04-25 14:20 | 21.00199 | -20.29144 | 37019 ft | 417 kts | 219° |
| 2026-04-25 14:20 | 20.95266 | -20.32322 | 37016 ft | 417 kts | 219° |
| 2026-04-25 14:21 | 20.90262 | -20.35543 | 37011 ft | 417 kts | 219° |
| 2026-04-25 14:21 | 20.85309 | -20.38729 | 37010 ft | 417 kts | 219° |
| 2026-04-25 14:22 | 20.80312 | -20.41941 | 37012 ft | 417 kts | 219° |
| 2026-04-25 14:22 | 20.75343 | -20.45132 | 37011 ft | 417 kts | 219° |
| 2026-04-25 14:23 | 20.70395 | -20.48308 | 37007 ft | 417 kts | 219° |
| 2026-04-25 14:23 | 20.65422 | -20.51497 | 37008 ft | 417 kts | 219° |
| 2026-04-25 14:24 | 20.60422 | -20.54701 | 37008 ft | 417 kts | 219° |
| 2026-04-25 14:24 | 20.55460 | -20.57878 | 37006 ft | 417 kts | 219° |
| 2026-04-25 14:25 | 20.50492 | -20.61057 | 37006 ft | 417 kts | 219° |
| 2026-04-25 14:25 | 20.45500 | -20.64249 | 37004 ft | 417 kts | 219° |
| 2026-04-25 14:26 | 20.40526 | -20.67428 | 37005 ft | 417 kts | 219° |
| 2026-04-25 14:26 | 20.35545 | -20.70606 | 37005 ft | 417 kts | 218° |
| 2026-04-25 14:27 | 20.30550 | -20.73783 | 37004 ft | 417 kts | 218° |
| 2026-04-25 14:27 | 20.25570 | -20.76946 | 37005 ft | 418 kts | 218° |
| 2026-04-25 14:28 | 20.20549 | -20.80135 | 37001 ft | 418 kts | 218° |
| 2026-04-25 14:28 | 20.15563 | -20.83299 | 37003 ft | 418 kts | 218° |
| 2026-04-25 14:29 | 20.10559 | -20.86473 | 37000 ft | 418 kts | 218° |
| 2026-04-25 14:29 | 20.05552 | -20.89647 | 36999 ft | 419 kts | 218° |
| 2026-04-25 14:30 | 20.00569 | -20.92802 | 37009 ft | 419 kts | 218° |
| 2026-04-25 14:30 | 19.93935 | -20.97000 | 37012 ft | 420 kts | 218° |
| 2026-04-25 14:31 | 19.88937 | -21.00161 | 37004 ft | 420 kts | 218° |
| 2026-04-25 14:31 | 19.83910 | -21.03337 | 36994 ft | 421 kts | 218° |
| 2026-04-25 14:32 | 19.79687 | -21.06002 | 37007 ft | 421 kts | 218° |
| 2026-04-25 14:32 | 19.74681 | -21.09161 | 37003 ft | 421 kts | 218° |
| 2026-04-25 14:33 | 19.69626 | -21.12347 | 37003 ft | 422 kts | 218° |
| 2026-04-25 14:33 | 19.64574 | -21.15530 | 36997 ft | 422 kts | 218° |
| 2026-04-25 14:34 | 19.59542 | -21.18698 | 36999 ft | 422 kts | 218° |
| 2026-04-25 14:34 | 19.54488 | -21.21877 | 37001 ft | 422 kts | 218° |
| 2026-04-25 14:35 | 19.49431 | -21.25056 | 36994 ft | 422 kts | 217° |
| 2026-04-25 14:35 | 19.44392 | -21.28220 | 36996 ft | 422 kts | 217° |
| 2026-04-25 14:36 | 19.39306 | -21.31413 | 36998 ft | 422 kts | 217° |
| 2026-04-25 14:36 | 19.34287 | -21.34561 | 36996 ft | 422 kts | 217° |
| 2026-04-25 14:37 | 19.29204 | -21.37746 | 36996 ft | 422 kts | 217° |
| 2026-04-25 14:37 | 19.24182 | -21.40892 | 36995 ft | 422 kts | 217° |
| 2026-04-25 14:38 | 19.19112 | -21.44065 | 37000 ft | 422 kts | 217° |
| 2026-04-25 14:38 | 19.14020 | -21.47249 | 36995 ft | 422 kts | 217° |
| 2026-04-25 14:39 | 19.08948 | -21.50419 | 36999 ft | 422 kts | 217° |
| 2026-04-25 14:39 | 19.03898 | -21.53572 | 36994 ft | 422 kts | 217° |
| 2026-04-25 14:40 | 18.98871 | -21.56709 | 36997 ft | 422 kts | 217° |
| 2026-04-25 14:40 | 18.93793 | -21.59876 | 36994 ft | 422 kts | 217° |
| 2026-04-25 14:41 | 18.88742 | -21.63024 | 37000 ft | 422 kts | 217° |
| 2026-04-25 14:41 | 18.83707 | -21.66159 | 36997 ft | 422 kts | 217° |
| 2026-04-25 14:42 | 18.79454 | -21.68806 | 36999 ft | 422 kts | 217° |
| 2026-04-25 14:42 | 18.73571 | -21.72464 | 36996 ft | 422 kts | 217° |
| 2026-04-25 14:43 | 18.68489 | -21.75623 | 36997 ft | 422 kts | 217° |
| 2026-04-25 14:43 | 18.63458 | -21.78747 | 36995 ft | 422 kts | 217° |
| 2026-04-25 14:44 | 18.58393 | -21.81890 | 36992 ft | 422 kts | 217° |
| 2026-04-25 14:44 | 18.53326 | -21.85032 | 36994 ft | 423 kts | 217° |
| 2026-04-25 14:45 | 18.48252 | -21.88176 | 36993 ft | 423 kts | 217° |
| 2026-04-25 14:45 | 18.43171 | -21.91322 | 36994 ft | 423 kts | 217° |
| 2026-04-25 14:46 | 18.38069 | -21.94479 | 36995 ft | 424 kts | 217° |
| 2026-04-25 14:46 | 18.32976 | -21.97629 | 36993 ft | 424 kts | 217° |
| 2026-04-25 14:47 | 18.28739 | -22.00247 | 36991 ft | 424 kts | 216° |
| 2026-04-25 14:47 | 18.22824 | -22.03901 | 36990 ft | 424 kts | 216° |
| 2026-04-25 14:48 | 18.17725 | -22.07049 | 36622 ft | 430 kts | 216° |
| 2026-04-25 14:48 | 18.15144 | -22.08641 | 36176 ft | 428 kts | 216° |
| 2026-04-25 14:48 | 18.12594 | -22.10213 | 35596 ft | 428 kts | 216° |
| 2026-04-25 14:49 | 18.10010 | -22.11804 | 35042 ft | 428 kts | 217° |
| 2026-04-25 14:49 | 18.07412 | -22.13406 | 34435 ft | 429 kts | 217° |
| 2026-04-25 14:49 | 18.04845 | -22.14988 | 33777 ft | 432 kts | 217° |
| 2026-04-25 14:49 | 18.02237 | -22.16595 | 33090 ft | 433 kts | 217° |
| 2026-04-25 14:50 | 18.00499 | -22.17665 | 32654 ft | 434 kts | 217° |
| 2026-04-25 14:50 | 17.97963 | -22.19226 | 32020 ft | 436 kts | 217° |
| 2026-04-25 14:50 | 17.95310 | -22.20857 | 31487 ft | 434 kts | 217° |
| 2026-04-25 14:50 | 17.92724 | -22.22446 | 31026 ft | 432 kts | 217° |
| 2026-04-25 14:51 | 17.90127 | -22.24036 | 30542 ft | 431 kts | 216° |
| 2026-04-25 14:51 | 17.87329 | -22.25240 | 30045 ft | 444 kts | 200° |
| 2026-04-25 14:51 | 17.84318 | -22.25876 | 29559 ft | 444 kts | 197° |
| 2026-04-25 14:51 | 17.81269 | -22.26426 | 29017 ft | 443 kts | 196° |
| 2026-04-25 14:52 | 17.78217 | -22.26952 | 28518 ft | 440 kts | 195° |
| 2026-04-25 14:52 | 17.75212 | -22.27476 | 28032 ft | 437 kts | 195° |
| 2026-04-25 14:52 | 17.72247 | -22.28008 | 27554 ft | 434 kts | 195° |
| 2026-04-25 14:52 | 17.70263 | -22.28372 | 27238 ft | 432 kts | 196° |
| 2026-04-25 14:53 | 17.66329 | -22.29107 | 26605 ft | 429 kts | 196° |
| 2026-04-25 14:53 | 17.63409 | -22.29661 | 26134 ft | 426 kts | 195° |
| 2026-04-25 14:53 | 17.60508 | -22.30215 | 25638 ft | 425 kts | 195° |
| 2026-04-25 14:53 | 17.57578 | -22.30775 | 25161 ft | 424 kts | 195° |
| 2026-04-25 14:54 | 17.54690 | -22.31327 | 24680 ft | 422 kts | 195° |
| 2026-04-25 14:54 | 17.51830 | -22.31874 | 24206 ft | 421 kts | 195° |
| 2026-04-25 14:54 | 17.48950 | -22.32423 | 23726 ft | 420 kts | 194° |
| 2026-04-25 14:54 | 17.46055 | -22.32976 | 23176 ft | 420 kts | 194° |
| 2026-04-25 14:55 | 17.44141 | -22.33340 | 22835 ft | 418 kts | 194° |
| 2026-04-25 14:55 | 17.40345 | -22.34062 | 22190 ft | 413 kts | 194° |
| 2026-04-25 14:55 | 17.37512 | -22.34600 | 21712 ft | 409 kts | 194° |
| 2026-04-25 14:55 | 17.34722 | -22.35131 | 21247 ft | 406 kts | 194° |
| 2026-04-25 14:56 | 17.31980 | -22.35652 | 20792 ft | 402 kts | 194° |
| 2026-04-25 14:56 | 17.29216 | -22.36177 | 20333 ft | 399 kts | 193° |
| 2026-04-25 14:56 | 17.26494 | -22.36695 | 19880 ft | 395 kts | 193° |
| 2026-04-25 14:56 | 17.23809 | -22.37205 | 19425 ft | 392 kts | 193° |
| 2026-04-25 14:57 | 17.21119 | -22.37716 | 18977 ft | 389 kts | 193° |
| 2026-04-25 14:57 | 17.18482 | -22.38217 | 18527 ft | 386 kts | 193° |
| 2026-04-25 14:57 | 17.15834 | -22.38720 | 18037 ft | 383 kts | 193° |
| 2026-04-25 14:57 | 17.13226 | -22.39215 | 17553 ft | 380 kts | 193° |
| 2026-04-25 14:58 | 17.10645 | -22.39705 | 17082 ft | 376 kts | 193° |
| 2026-04-25 14:58 | 17.08100 | -22.40187 | 16645 ft | 373 kts | 193° |
| 2026-04-25 14:58 | 17.05543 | -22.40672 | 16201 ft | 369 kts | 193° |
| 2026-04-25 14:58 | 17.03037 | -22.41147 | 15766 ft | 366 kts | 193° |
| 2026-04-25 14:59 | 17.00620 | -22.41605 | 15346 ft | 364 kts | 193° |
| 2026-04-25 14:59 | 16.98136 | -22.42076 | 14918 ft | 361 kts | 193° |
| 2026-04-25 14:59 | 16.95647 | -22.42548 | 14468 ft | 360 kts | 193° |
| 2026-04-25 14:59 | 16.93194 | -22.43012 | 14034 ft | 359 kts | 193° |
| 2026-04-25 15:00 | 16.90761 | -22.43474 | 13574 ft | 358 kts | 193° |
| 2026-04-25 15:00 | 16.88325 | -22.43935 | 13115 ft | 355 kts | 193° |
| 2026-04-25 15:00 | 16.85874 | -22.44398 | 12676 ft | 352 kts | 193° |
| 2026-04-25 15:00 | 16.83481 | -22.44851 | 12249 ft | 350 kts | 193° |
| 2026-04-25 15:01 | 16.81105 | -22.45300 | 11831 ft | 347 kts | 193° |
| 2026-04-25 15:01 | 16.78727 | -22.45749 | 11412 ft | 344 kts | 193° |
| 2026-04-25 15:01 | 16.76398 | -22.46189 | 10993 ft | 341 kts | 193° |
| 2026-04-25 15:01 | 16.74062 | -22.46631 | 10590 ft | 339 kts | 193° |
| 2026-04-25 15:02 | 16.71787 | -22.47060 | 10397 ft | 329 kts | 193° |
| 2026-04-25 15:02 | 16.69558 | -22.47479 | 10241 ft | 319 kts | 194° |
| 2026-04-25 15:02 | 16.67401 | -22.47885 | 10098 ft | 309 kts | 194° |
| 2026-04-25 15:02 | 16.65293 | -22.48282 | 9948 ft | 301 kts | 194° |
| 2026-04-25 15:03 | 16.63284 | -22.48660 | 9831 ft | 287 kts | 194° |
| 2026-04-25 15:03 | 16.61328 | -22.49030 | 9371 ft | 285 kts | 194° |
| 2026-04-25 15:03 | 16.59397 | -22.49396 | 8987 ft | 280 kts | 194° |
| 2026-04-25 15:03 | 16.57507 | -22.49753 | 8689 ft | 274 kts | 194° |
| 2026-04-25 15:04 | 16.55634 | -22.50106 | 8383 ft | 268 kts | 194° |
| 2026-04-25 15:04 | 16.53817 | -22.50450 | 8105 ft | 267 kts | 194° |
| 2026-04-25 15:04 | 16.51974 | -22.50799 | 7807 ft | 267 kts | 194° |
| 2026-04-25 15:04 | 16.50150 | -22.51144 | 7526 ft | 270 kts | 194° |
| 2026-04-25 15:05 | 16.48277 | -22.51500 | 7201 ft | 279 kts | 194° |
| 2026-04-25 15:05 | 16.46348 | -22.51865 | 6879 ft | 284 kts | 194° |
| 2026-04-25 15:05 | 16.44391 | -22.52234 | 6559 ft | 284 kts | 193° |
| 2026-04-25 15:06 | 16.40487 | -22.52968 | 5915 ft | 284 kts | 194° |
| 2026-04-25 15:06 | 16.38553 | -22.53332 | 5602 ft | 284 kts | 194° |
| 2026-04-25 15:06 | 16.36614 | -22.53697 | 5290 ft | 284 kts | 193° |
| 2026-04-25 15:06 | 16.34649 | -22.54067 | 4968 ft | 284 kts | 193° |
| 2026-04-25 15:07 | 16.32703 | -22.54433 | 4674 ft | 284 kts | 193° |
| 2026-04-25 15:07 | 16.30779 | -22.54795 | 4370 ft | 284 kts | 193° |
| 2026-04-25 15:07 | 16.28859 | -22.55164 | 4058 ft | 283 kts | 195° |
| 2026-04-25 15:07 | 16.27105 | -22.55995 | 3931 ft | 270 kts | 217° |
| 2026-04-25 15:08 | 16.25620 | -22.57140 | 3883 ft | 267 kts | 220° |
| 2026-04-25 15:08 | 16.24634 | -22.57926 | 3830 ft | 268 kts | 220° |
| 2026-04-25 15:08 | 16.22645 | -22.59524 | 3488 ft | 272 kts | 220° |
| 2026-04-25 15:08 | 16.21642 | -22.60327 | 3196 ft | 276 kts | 219° |
| 2026-04-25 15:09 | 16.19597 | -22.61959 | 2738 ft | 279 kts | 219° |
| 2026-04-25 15:09 | 16.18565 | -22.62779 | 2555 ft | 279 kts | 218° |
| 2026-04-25 15:09 | 16.15497 | -22.65208 | 2412 ft | 275 kts | 218° |
| 2026-04-25 15:10 | 16.13966 | -22.66418 | 2414 ft | 273 kts | 219° |
| 2026-04-25 15:10 | 16.12460 | -22.67608 | 2410 ft | 273 kts | 218° |
| 2026-04-25 15:10 | 16.09415 | -22.70013 | 2419 ft | 280 kts | 218° |
| 2026-04-25 15:11 | 16.07854 | -22.71244 | 2417 ft | 276 kts | 218° |
| 2026-04-25 15:11 | 16.06345 | -22.72434 | 2408 ft | 277 kts | 218° |
| 2026-04-25 15:11 | 16.04817 | -22.73638 | 2434 ft | 276 kts | 218° |
| 2026-04-25 15:12 | 16.01727 | -22.76073 | 2406 ft | 276 kts | 219° |
| 2026-04-25 15:12 | 16.00214 | -22.77263 | 2442 ft | 275 kts | 218° |
| 2026-04-25 15:12 | 15.98706 | -22.78454 | 2434 ft | 276 kts | 218° |
| 2026-04-25 15:12 | 15.97671 | -22.79271 | 2440 ft | 277 kts | 218° |
| 2026-04-25 15:13 | 15.95598 | -22.80904 | 2437 ft | 280 kts | 218° |
| 2026-04-25 15:13 | 15.92504 | -22.83337 | 2409 ft | 275 kts | 218° |
| 2026-04-25 15:13 | 15.91164 | -22.84677 | 2396 ft | 258 kts | 241° |
| 2026-04-25 15:14 | 15.90586 | -22.86338 | 2417 ft | 236 kts | 267° |
| 2026-04-25 15:14 | 15.90613 | -22.87962 | 2417 ft | 221 kts | 285° |
| 2026-04-25 15:14 | 15.91003 | -22.89491 | 2429 ft | 216 kts | 291° |
| 2026-04-25 15:14 | 15.91444 | -22.90978 | 2415 ft | 215 kts | 292° |
| 2026-04-25 15:15 | 15.91883 | -22.92453 | 2431 ft | 216 kts | 291° |
| 2026-04-25 15:15 | 15.92511 | -22.93852 | 2397 ft | 212 kts | 317° |
| 2026-04-25 15:15 | 15.93736 | -22.94634 | 2435 ft | 206 kts | 349° |
| 2026-04-25 15:15 | 15.95127 | -22.94631 | 2428 ft | 203 kts | 13° |
| 2026-04-25 15:16 | 15.96502 | -22.94229 | 2408 ft | 202 kts | 17° |
| 2026-04-25 15:16 | 15.97834 | -22.93799 | 2412 ft | 201 kts | 17° |
| 2026-04-25 15:16 | 16.00388 | -22.92995 | 2407 ft | 176 kts | 17° |
| 2026-04-25 15:17 | 16.02572 | -22.92317 | 2114 ft | 151 kts | 17° |
| 2026-04-25 15:17 | 16.03517 | -22.92024 | 1900 ft | 138 kts | 16° |
| 2026-04-25 15:17 | 16.04417 | -22.91744 | 1751 ft | 137 kts | 18° |
| 2026-04-25 15:18 | 16.05349 | -22.91455 | 1568 ft | 151 kts | 18° |
| 2026-04-25 15:18 | 16.07272 | -22.90859 | 1164 ft | 143 kts | 18° |
| 2026-04-25 15:18 | 16.08234 | -22.90559 | 968 ft | 149 kts | 18° |
| 2026-04-25 15:19 | 16.09229 | -22.90250 | 764 ft | 147 kts | 15° |
| 2026-04-25 15:19 | 16.09820 | -22.90069 | 649 ft | 143 kts | 18° |
| 2026-04-25 15:19 | 16.10947 | -22.89732 | 422 ft | 141 kts | 17° |
| 2026-04-25 15:19 | 16.11841 | -22.89456 | 263 ft | 138 kts | 17° |
| 2026-04-25 15:20 | 16.12729 | -22.89183 | 98 ft | 136 kts | 17° |
| 2026-04-25 15:20 | 16.13564 | -22.88918 | 71 ft | 103 kts | 17° |
| 2026-04-25 15:20 | 16.14038 | -22.88768 | 89 ft | 38 kts | 16° |
| 2026-04-25 15:20 | 16.14116 | -22.88743 | 93 ft | 0 kts | 17° |
| 2026-04-25 15:21 | 16.14120 | -22.88742 | 93 ft | 2 kts | 17° |
| 2026-04-25 15:21 | 16.14154 | -22.88731 | 93 ft | 8 kts | 18° |
| 2026-04-25 15:21 | 16.14220 | -22.88710 | 94 ft | 12 kts | 16° |
| 2026-04-25 15:21 | 16.14312 | -22.88682 | 93 ft | 15 kts | 16° |
| 2026-04-25 15:22 | 16.14414 | -22.88651 | 95 ft | 15 kts | 17° |
| 2026-04-25 15:22 | 16.14504 | -22.88623 | 97 ft | 9 kts | 16° |
| 2026-04-25 15:22 | 16.14566 | -22.88639 | 99 ft | 10 kts | 350° |
| 2026-04-25 15:22 | 16.14627 | -22.88622 | 101 ft | 8 kts | 34° |
| 2026-04-25 15:23 | 16.14598 | -22.88591 | 99 ft | 10 kts | 197° |
| 2026-04-25 15:23 | 16.14516 | -22.88619 | 96 ft | 15 kts | 195° |
| 2026-04-25 15:23 | 16.14400 | -22.88656 | 94 ft | 20 kts | 197° |
| 2026-04-25 15:23 | 16.14299 | -22.88687 | 93 ft | 24 kts | 197° |